sensor_id;sensor_type;location;lat;lon;timestamp;P1;durP1;ratioP1;P2;durP2;ratioP2
6997;SDS011;3539;47.982;12.238;2023-09-08T00:02:02;4.30;;;3.90;;
6997;SDS011;3539;47.982;12.238;2023-09-08T00:04:29;4.57;;;3.87;;
6997;SDS011;3539;47.982;12.238;2023-09-08T00:06:58;5.67;;;4.30;;
6997;SDS011;3539;47.982;12.238;2023-09-08T00:09:24;6.17;;;4.57;;
6997;SDS011;3539;47.982;12.238;2023-09-08T00:11:51;4.60;;;4.20;;
6997;SDS011;3539;47.982;12.238;2023-09-08T00:14:19;4.63;;;4.23;;
6997;SDS011;3539;47.982;12.238;2023-09-08T00:16:47;5.73;;;4.90;;
6997;SDS011;3539;47.982;12.238;2023-09-08T00:19:14;4.80;;;4.30;;
6997;SDS011;3539;47.982;12.238;2023-09-08T00:21:41;5.43;;;4.93;;
6997;SDS011;3539;47.982;12.238;2023-09-08T00:24:08;5.43;;;4.93;;
6997;SDS011;3539;47.982;12.238;2023-09-08T00:26:35;5.17;;;4.67;;
6997;SDS011;3539;47.982;12.238;2023-09-08T00:29:02;4.80;;;4.30;;
6997;SDS011;3539;47.982;12.238;2023-09-08T00:31:29;4.53;;;4.13;;
6997;SDS011;3539;47.982;12.238;2023-09-08T00:33:57;4.60;;;4.20;;
6997;SDS011;3539;47.982;12.238;2023-09-08T00:36:24;5.50;;;4.20;;
6997;SDS011;3539;47.982;12.238;2023-09-08T00:38:51;4.40;;;4.00;;
6997;SDS011;3539;47.982;12.238;2023-09-08T00:41:17;4.93;;;4.43;;
6997;SDS011;3539;47.982;12.238;2023-09-08T00:43:44;4.80;;;4.03;;
6997;SDS011;3539;47.982;12.238;2023-09-08T00:46:11;4.30;;;3.90;;
6997;SDS011;3539;47.982;12.238;2023-09-08T00:48:39;4.40;;;3.87;;
6997;SDS011;3539;47.982;12.238;2023-09-08T00:51:07;4.23;;;3.80;;
6997;SDS011;3539;47.982;12.238;2023-09-08T00:53:35;4.37;;;3.97;;
6997;SDS011;3539;47.982;12.238;2023-09-08T00:56:01;4.57;;;4.17;;
6997;SDS011;3539;47.982;12.238;2023-09-08T00:58:29;4.90;;;4.50;;
6997;SDS011;3539;47.982;12.238;2023-09-08T01:00:56;5.40;;;4.43;;
6997;SDS011;3539;47.982;12.238;2023-09-08T01:03:23;7.87;;;4.17;;
6997;SDS011;3539;47.982;12.238;2023-09-08T01:05:50;5.77;;;4.10;;
6997;SDS011;3539;47.982;12.238;2023-09-08T01:08:19;4.47;;;4.07;;
6997;SDS011;3539;47.982;12.238;2023-09-08T01:10:46;4.17;;;3.77;;
6997;SDS011;3539;47.982;12.238;2023-09-08T01:13:13;4.37;;;3.97;;
6997;SDS011;3539;47.982;12.238;2023-09-08T01:15:40;4.37;;;3.97;;
6997;SDS011;3539;47.982;12.238;2023-09-08T01:18:06;9.97;;;4.27;;
6997;SDS011;3539;47.982;12.238;2023-09-08T01:20:35;4.70;;;4.20;;
6997;SDS011;3539;47.982;12.238;2023-09-08T01:23:17;5.20;;;4.37;;
6997;SDS011;3539;47.982;12.238;2023-09-08T01:25:50;8.23;;;4.57;;
6997;SDS011;3539;47.982;12.238;2023-09-08T01:28:18;5.83;;;4.27;;
6997;SDS011;3539;47.982;12.238;2023-09-08T01:30:46;5.03;;;4.00;;
6997;SDS011;3539;47.982;12.238;2023-09-08T01:33:14;4.60;;;4.20;;
6997;SDS011;3539;47.982;12.238;2023-09-08T01:35:41;5.53;;;4.30;;
6997;SDS011;3539;47.982;12.238;2023-09-08T01:38:08;5.43;;;4.90;;
6997;SDS011;3539;47.982;12.238;2023-09-08T01:40:34;5.33;;;4.70;;
6997;SDS011;3539;47.982;12.238;2023-09-08T01:43:03;6.30;;;4.30;;
6997;SDS011;3539;47.982;12.238;2023-09-08T01:45:30;5.80;;;4.33;;
6997;SDS011;3539;47.982;12.238;2023-09-08T01:47:57;4.73;;;4.27;;
6997;SDS011;3539;47.982;12.238;2023-09-08T01:50:23;5.03;;;4.53;;
6997;SDS011;3539;47.982;12.238;2023-09-08T01:52:50;5.87;;;5.03;;
6997;SDS011;3539;47.982;12.238;2023-09-08T01:55:17;5.20;;;4.70;;
6997;SDS011;3539;47.982;12.238;2023-09-08T01:57:44;5.63;;;5.10;;
6997;SDS011;3539;47.982;12.238;2023-09-08T02:00:13;5.20;;;4.23;;
6997;SDS011;3539;47.982;12.238;2023-09-08T02:02:40;4.87;;;4.37;;
6997;SDS011;3539;47.982;12.238;2023-09-08T02:05:07;5.20;;;4.70;;
6997;SDS011;3539;47.982;12.238;2023-09-08T02:07:34;5.17;;;4.30;;
6997;SDS011;3539;47.982;12.238;2023-09-08T02:10:01;4.67;;;4.10;;
6997;SDS011;3539;47.982;12.238;2023-09-08T02:12:28;4.57;;;3.87;;
6997;SDS011;3539;47.982;12.238;2023-09-08T02:14:54;5.13;;;3.93;;
6997;SDS011;3539;47.982;12.238;2023-09-08T02:17:23;4.40;;;4.00;;
6997;SDS011;3539;47.982;12.238;2023-09-08T02:19:49;5.03;;;4.20;;
6997;SDS011;3539;47.982;12.238;2023-09-08T02:22:16;3.93;;;3.50;;
6997;SDS011;3539;47.982;12.238;2023-09-08T02:24:44;5.27;;;3.83;;
6997;SDS011;3539;47.982;12.238;2023-09-08T02:27:11;4.23;;;3.90;;
6997;SDS011;3539;47.982;12.238;2023-09-08T02:29:38;5.00;;;3.90;;
6997;SDS011;3539;47.982;12.238;2023-09-08T02:32:05;5.40;;;4.17;;
6997;SDS011;3539;47.982;12.238;2023-09-08T02:34:35;5.47;;;4.03;;
6997;SDS011;3539;47.982;12.238;2023-09-08T02:37:03;4.53;;;4.13;;
6997;SDS011;3539;47.982;12.238;2023-09-08T02:39:29;5.63;;;4.20;;
6997;SDS011;3539;47.982;12.238;2023-09-08T02:41:56;4.53;;;4.00;;
6997;SDS011;3539;47.982;12.238;2023-09-08T02:44:23;5.27;;;4.10;;
6997;SDS011;3539;47.982;12.238;2023-09-08T02:46:50;4.40;;;3.70;;
6997;SDS011;3539;47.982;12.238;2023-09-08T02:49:17;3.70;;;3.40;;
6997;SDS011;3539;47.982;12.238;2023-09-08T02:51:45;5.20;;;3.80;;
6997;SDS011;3539;47.982;12.238;2023-09-08T02:54:12;4.37;;;3.80;;
6997;SDS011;3539;47.982;12.238;2023-09-08T02:56:39;4.37;;;3.97;;
6997;SDS011;3539;47.982;12.238;2023-09-08T02:59:05;4.37;;;3.97;;
6997;SDS011;3539;47.982;12.238;2023-09-08T03:01:32;4.03;;;3.63;;
6997;SDS011;3539;47.982;12.238;2023-09-08T03:03:59;4.10;;;3.70;;
6997;SDS011;3539;47.982;12.238;2023-09-08T03:06:26;4.17;;;3.77;;
6997;SDS011;3539;47.982;12.238;2023-09-08T03:08:54;4.37;;;3.97;;
6997;SDS011;3539;47.982;12.238;2023-09-08T03:11:21;4.33;;;3.93;;
6997;SDS011;3539;47.982;12.238;2023-09-08T03:13:48;4.30;;;3.90;;
6997;SDS011;3539;47.982;12.238;2023-09-08T03:16:14;4.67;;;3.80;;
6997;SDS011;3539;47.982;12.238;2023-09-08T03:18:42;4.40;;;4.00;;
6997;SDS011;3539;47.982;12.238;2023-09-08T03:21:08;4.30;;;3.90;;
6997;SDS011;3539;47.982;12.238;2023-09-08T03:23:36;4.53;;;4.10;;
6997;SDS011;3539;47.982;12.238;2023-09-08T03:26:04;4.70;;;3.80;;
6997;SDS011;3539;47.982;12.238;2023-09-08T03:28:31;4.53;;;4.13;;
6997;SDS011;3539;47.982;12.238;2023-09-08T03:30:59;4.60;;;4.20;;
6997;SDS011;3539;47.982;12.238;2023-09-08T03:33:25;5.57;;;4.40;;
6997;SDS011;3539;47.982;12.238;2023-09-08T03:35:52;4.83;;;4.00;;
6997;SDS011;3539;47.982;12.238;2023-09-08T03:38:20;5.30;;;4.20;;
6997;SDS011;3539;47.982;12.238;2023-09-08T03:40:47;7.27;;;4.20;;
6997;SDS011;3539;47.982;12.238;2023-09-08T03:43:15;4.47;;;3.20;;
6997;SDS011;3539;47.982;12.238;2023-09-08T03:45:42;4.00;;;3.70;;
6997;SDS011;3539;47.982;12.238;2023-09-08T03:48:09;3.93;;;3.53;;
6997;SDS011;3539;47.982;12.238;2023-09-08T03:50:36;4.80;;;3.57;;
6997;SDS011;3539;47.982;12.238;2023-09-08T03:53:03;3.90;;;3.50;;
6997;SDS011;3539;47.982;12.238;2023-09-08T03:55:30;5.40;;;3.70;;
6997;SDS011;3539;47.982;12.238;2023-09-08T03:57:57;4.10;;;3.70;;
6997;SDS011;3539;47.982;12.238;2023-09-08T04:00:25;5.57;;;4.00;;
6997;SDS011;3539;47.982;12.238;2023-09-08T04:02:52;4.40;;;3.80;;
6997;SDS011;3539;47.982;12.238;2023-09-08T04:05:19;4.40;;;4.00;;
6997;SDS011;3539;47.982;12.238;2023-09-08T04:07:46;4.80;;;4.37;;
6997;SDS011;3539;47.982;12.238;2023-09-08T04:10:12;5.00;;;4.10;;
6997;SDS011;3539;47.982;12.238;2023-09-08T04:12:39;4.20;;;3.80;;
6997;SDS011;3539;47.982;12.238;2023-09-08T04:15:07;5.23;;;3.87;;
6997;SDS011;3539;47.982;12.238;2023-09-08T04:17:36;6.20;;;3.97;;
6997;SDS011;3539;47.982;12.238;2023-09-08T04:20:03;4.30;;;3.90;;
6997;SDS011;3539;47.982;12.238;2023-09-08T04:22:31;4.37;;;3.83;;
6997;SDS011;3539;47.982;12.238;2023-09-08T04:24:58;4.30;;;3.80;;
6997;SDS011;3539;47.982;12.238;2023-09-08T04:27:25;4.80;;;3.50;;
6997;SDS011;3539;47.982;12.238;2023-09-08T04:29:52;5.40;;;3.80;;
6997;SDS011;3539;47.982;12.238;2023-09-08T04:32:19;3.90;;;3.50;;
6997;SDS011;3539;47.982;12.238;2023-09-08T04:34:47;4.20;;;3.80;;
6997;SDS011;3539;47.982;12.238;2023-09-08T04:37:14;4.97;;;3.80;;
6997;SDS011;3539;47.982;12.238;2023-09-08T04:39:41;4.30;;;3.90;;
6997;SDS011;3539;47.982;12.238;2023-09-08T04:42:09;4.10;;;3.70;;
6997;SDS011;3539;47.982;12.238;2023-09-08T04:44:35;3.90;;;3.50;;
6997;SDS011;3539;47.982;12.238;2023-09-08T04:47:03;4.00;;;3.60;;
6997;SDS011;3539;47.982;12.238;2023-09-08T04:49:30;3.63;;;3.33;;
6997;SDS011;3539;47.982;12.238;2023-09-08T04:51:58;5.70;;;4.00;;
6997;SDS011;3539;47.982;12.238;2023-09-08T04:54:25;3.70;;;3.40;;
6997;SDS011;3539;47.982;12.238;2023-09-08T04:56:52;4.53;;;3.50;;
6997;SDS011;3539;47.982;12.238;2023-09-08T04:59:19;3.73;;;3.40;;
6997;SDS011;3539;47.982;12.238;2023-09-08T05:01:48;3.47;;;3.17;;
6997;SDS011;3539;47.982;12.238;2023-09-08T05:04:15;7.20;;;4.03;;
6997;SDS011;3539;47.982;12.238;2023-09-08T05:06:42;4.40;;;4.00;;
6997;SDS011;3539;47.982;12.238;2023-09-08T05:09:10;4.90;;;3.90;;
6997;SDS011;3539;47.982;12.238;2023-09-08T05:11:37;5.60;;;3.57;;
6997;SDS011;3539;47.982;12.238;2023-09-08T05:14:04;6.53;;;3.90;;
6997;SDS011;3539;47.982;12.238;2023-09-08T05:16:31;4.00;;;3.60;;
6997;SDS011;3539;47.982;12.238;2023-09-08T05:19:04;5.43;;;3.97;;
6997;SDS011;3539;47.982;12.238;2023-09-08T05:21:32;5.87;;;4.13;;
6997;SDS011;3539;47.982;12.238;2023-09-08T05:24:00;4.40;;;4.00;;
6997;SDS011;3539;47.982;12.238;2023-09-08T05:26:28;3.93;;;3.60;;
6997;SDS011;3539;47.982;12.238;2023-09-08T05:28:55;4.20;;;3.80;;
6997;SDS011;3539;47.982;12.238;2023-09-08T05:31:21;4.10;;;3.67;;
6997;SDS011;3539;47.982;12.238;2023-09-08T05:33:48;5.07;;;3.90;;
6997;SDS011;3539;47.982;12.238;2023-09-08T05:36:15;4.23;;;3.50;;
6997;SDS011;3539;47.982;12.238;2023-09-08T05:38:42;4.23;;;3.83;;
6997;SDS011;3539;47.982;12.238;2023-09-08T05:41:08;3.90;;;3.60;;
6997;SDS011;3539;47.982;12.238;2023-09-08T05:43:37;4.10;;;3.70;;
6997;SDS011;3539;47.982;12.238;2023-09-08T05:46:03;4.43;;;3.87;;
6997;SDS011;3539;47.982;12.238;2023-09-08T05:48:31;4.47;;;4.07;;
6997;SDS011;3539;47.982;12.238;2023-09-08T05:50:57;5.40;;;4.37;;
6997;SDS011;3539;47.982;12.238;2023-09-08T05:53:24;4.50;;;3.87;;
6997;SDS011;3539;47.982;12.238;2023-09-08T05:55:51;4.77;;;4.17;;
6997;SDS011;3539;47.982;12.238;2023-09-08T05:58:18;4.90;;;4.40;;
6997;SDS011;3539;47.982;12.238;2023-09-08T06:00:46;4.80;;;4.30;;
6997;SDS011;3539;47.982;12.238;2023-09-08T06:03:13;4.83;;;4.00;;
6997;SDS011;3539;47.982;12.238;2023-09-08T06:05:40;5.60;;;4.00;;
6997;SDS011;3539;47.982;12.238;2023-09-08T06:08:07;4.13;;;3.63;;
6997;SDS011;3539;47.982;12.238;2023-09-08T06:10:33;4.53;;;4.07;;
6997;SDS011;3539;47.982;12.238;2023-09-08T06:13:00;5.23;;;4.20;;
6997;SDS011;3539;47.982;12.238;2023-09-08T06:15:27;5.47;;;4.77;;
6997;SDS011;3539;47.982;12.238;2023-09-08T06:17:56;6.03;;;4.33;;
6997;SDS011;3539;47.982;12.238;2023-09-08T06:20:22;5.97;;;4.93;;
6997;SDS011;3539;47.982;12.238;2023-09-08T06:22:51;6.70;;;4.83;;
6997;SDS011;3539;47.982;12.238;2023-09-08T06:25:18;5.10;;;4.60;;
6997;SDS011;3539;47.982;12.238;2023-09-08T06:27:45;5.73;;;4.57;;
6997;SDS011;3539;47.982;12.238;2023-09-08T06:30:12;6.50;;;5.10;;
6997;SDS011;3539;47.982;12.238;2023-09-08T06:32:41;5.47;;;4.90;;
6997;SDS011;3539;47.982;12.238;2023-09-08T06:35:10;5.90;;;5.17;;
6997;SDS011;3539;47.982;12.238;2023-09-08T06:37:38;7.00;;;5.33;;
6997;SDS011;3539;47.982;12.238;2023-09-08T06:40:05;6.97;;;5.10;;
6997;SDS011;3539;47.982;12.238;2023-09-08T06:42:33;4.97;;;4.47;;
6997;SDS011;3539;47.982;12.238;2023-09-08T06:44:59;5.20;;;4.70;;
6997;SDS011;3539;47.982;12.238;2023-09-08T06:47:26;5.40;;;4.90;;
6997;SDS011;3539;47.982;12.238;2023-09-08T06:49:53;7.53;;;5.77;;
6997;SDS011;3539;47.982;12.238;2023-09-08T06:52:21;6.60;;;6.00;;
6997;SDS011;3539;47.982;12.238;2023-09-08T06:54:48;6.37;;;5.67;;
6997;SDS011;3539;47.982;12.238;2023-09-08T06:57:17;6.77;;;6.10;;
6997;SDS011;3539;47.982;12.238;2023-09-08T06:59:44;6.30;;;5.70;;
6997;SDS011;3539;47.982;12.238;2023-09-08T07:02:11;6.07;;;5.47;;
6997;SDS011;3539;47.982;12.238;2023-09-08T07:04:38;6.10;;;5.50;;
6997;SDS011;3539;47.982;12.238;2023-09-08T07:07:05;6.67;;;6.07;;
6997;SDS011;3539;47.982;12.238;2023-09-08T07:09:34;7.07;;;6.00;;
6997;SDS011;3539;47.982;12.238;2023-09-08T07:12:02;5.80;;;5.30;;
6997;SDS011;3539;47.982;12.238;2023-09-08T07:14:29;6.47;;;5.77;;
6997;SDS011;3539;47.982;12.238;2023-09-08T07:16:56;7.50;;;6.47;;
6997;SDS011;3539;47.982;12.238;2023-09-08T07:19:23;8.00;;;6.70;;
6997;SDS011;3539;47.982;12.238;2023-09-08T07:21:50;8.07;;;6.72;;
6997;SDS011;3539;47.982;12.238;2023-09-08T07:24:17;7.50;;;6.80;;
6997;SDS011;3539;47.982;12.238;2023-09-08T07:26:45;7.10;;;6.40;;
6997;SDS011;3539;47.982;12.238;2023-09-08T07:29:12;8.10;;;7.00;;
6997;SDS011;3539;47.982;12.238;2023-09-08T07:31:38;7.60;;;6.90;;
6997;SDS011;3539;47.982;12.238;2023-09-08T07:34:05;7.80;;;7.00;;
6997;SDS011;3539;47.982;12.238;2023-09-08T07:36:32;6.73;;;6.03;;
6997;SDS011;3539;47.982;12.238;2023-09-08T07:38:59;7.10;;;6.40;;
6997;SDS011;3539;47.982;12.238;2023-09-08T07:41:26;5.97;;;5.37;;
6997;SDS011;3539;47.982;12.238;2023-09-08T07:43:54;7.33;;;5.80;;
6997;SDS011;3539;47.982;12.238;2023-09-08T07:46:21;6.30;;;5.43;;
6997;SDS011;3539;47.982;12.238;2023-09-08T07:48:49;7.37;;;5.87;;
6997;SDS011;3539;47.982;12.238;2023-09-08T07:51:16;6.47;;;5.57;;
6997;SDS011;3539;47.982;12.238;2023-09-08T07:53:43;8.47;;;5.97;;
6997;SDS011;3539;47.982;12.238;2023-09-08T07:56:09;7.23;;;6.27;;
6997;SDS011;3539;47.982;12.238;2023-09-08T07:58:37;7.17;;;6.30;;
6997;SDS011;3539;47.982;12.238;2023-09-08T08:01:06;6.67;;;6.07;;
6997;SDS011;3539;47.982;12.238;2023-09-08T08:03:33;7.50;;;6.70;;
6997;SDS011;3539;47.982;12.238;2023-09-08T08:06:00;9.33;;;6.47;;
6997;SDS011;3539;47.982;12.238;2023-09-08T08:08:27;7.13;;;6.43;;
6997;SDS011;3539;47.982;12.238;2023-09-08T08:10:54;6.60;;;6.00;;
6997;SDS011;3539;47.982;12.238;2023-09-08T08:13:21;7.67;;;6.97;;
6997;SDS011;3539;47.982;12.238;2023-09-08T08:15:48;9.53;;;6.90;;
6997;SDS011;3539;47.982;12.238;2023-09-08T08:18:16;7.63;;;6.93;;
6997;SDS011;3539;47.982;12.238;2023-09-08T08:20:43;7.20;;;6.50;;
6997;SDS011;3539;47.982;12.238;2023-09-08T08:23:10;7.73;;;7.00;;
6997;SDS011;3539;47.982;12.238;2023-09-08T08:25:37;9.30;;;7.20;;
6997;SDS011;3539;47.982;12.238;2023-09-08T08:28:04;7.80;;;7.00;;
6997;SDS011;3539;47.982;12.238;2023-09-08T08:30:31;8.13;;;7.25;;
6997;SDS011;3539;47.982;12.238;2023-09-08T08:32:58;8.17;;;7.03;;
6997;SDS011;3539;47.982;12.238;2023-09-08T08:35:27;7.13;;;6.43;;
6997;SDS011;3539;47.982;12.238;2023-09-08T08:38:05;8.37;;;7.37;;
6997;SDS011;3539;47.982;12.238;2023-09-08T08:40:32;8.17;;;7.37;;
6997;SDS011;3539;47.982;12.238;2023-09-08T08:43:00;9.80;;;7.07;;
6997;SDS011;3539;47.982;12.238;2023-09-08T08:45:27;7.90;;;7.10;;
6997;SDS011;3539;47.982;12.238;2023-09-08T08:47:58;9.47;;;7.13;;
6997;SDS011;3539;47.982;12.238;2023-09-08T08:50:27;7.50;;;6.80;;
6997;SDS011;3539;47.982;12.238;2023-09-08T08:52:54;7.60;;;6.80;;
6997;SDS011;3539;47.982;12.238;2023-09-08T08:55:24;6.70;;;6.10;;
6997;SDS011;3539;47.982;12.238;2023-09-08T08:57:52;7.60;;;6.53;;
6997;SDS011;3539;47.982;12.238;2023-09-08T09:00:19;7.07;;;6.20;;
6997;SDS011;3539;47.982;12.238;2023-09-08T09:02:46;7.43;;;6.37;;
6997;SDS011;3539;47.982;12.238;2023-09-08T09:05:15;7.27;;;5.90;;
6997;SDS011;3539;47.982;12.238;2023-09-08T09:07:44;7.07;;;6.33;;
6997;SDS011;3539;47.982;12.238;2023-09-08T09:10:14;7.17;;;6.10;;
6997;SDS011;3539;47.982;12.238;2023-09-08T09:12:41;6.27;;;5.63;;
6997;SDS011;3539;47.982;12.238;2023-09-08T09:15:08;6.47;;;5.70;;
6997;SDS011;3539;47.982;12.238;2023-09-08T09:17:36;6.40;;;5.80;;
6997;SDS011;3539;47.982;12.238;2023-09-08T09:20:13;6.83;;;5.70;;
6997;SDS011;3539;47.982;12.238;2023-09-08T09:22:44;6.63;;;5.20;;
6997;SDS011;3539;47.982;12.238;2023-09-08T09:25:20;5.97;;;5.37;;
6997;SDS011;3539;47.982;12.238;2023-09-08T09:27:49;8.05;;;5.90;;
6997;SDS011;3539;47.982;12.238;2023-09-08T09:30:17;6.32;;;5.40;;
6997;SDS011;3539;47.982;12.238;2023-09-08T09:32:45;6.00;;;5.38;;
6997;SDS011;3539;47.982;12.238;2023-09-08T09:35:14;6.13;;;4.95;;
6997;SDS011;3539;47.982;12.238;2023-09-08T09:37:41;5.97;;;4.90;;
6997;SDS011;3539;47.982;12.238;2023-09-08T09:40:10;5.35;;;4.85;;
6997;SDS011;3539;47.982;12.238;2023-09-08T09:42:37;6.23;;;5.20;;
6997;SDS011;3539;47.982;12.238;2023-09-08T09:45:05;8.30;;;5.38;;
6997;SDS011;3539;47.982;12.238;2023-09-08T09:47:33;5.38;;;4.88;;
6997;SDS011;3539;47.982;12.238;2023-09-08T09:50:00;5.68;;;4.72;;
6997;SDS011;3539;47.982;12.238;2023-09-08T09:52:28;5.38;;;4.75;;
6997;SDS011;3539;47.982;12.238;2023-09-08T09:54:56;5.50;;;4.80;;
6997;SDS011;3539;47.982;12.238;2023-09-08T09:57:25;6.70;;;5.60;;
6997;SDS011;3539;47.982;12.238;2023-09-08T09:59:53;6.10;;;4.40;;
6997;SDS011;3539;47.982;12.238;2023-09-08T10:02:20;4.70;;;4.20;;
6997;SDS011;3539;47.982;12.238;2023-09-08T10:04:47;4.97;;;4.47;;
6997;SDS011;3539;47.982;12.238;2023-09-08T10:07:15;5.00;;;4.50;;
6997;SDS011;3539;47.982;12.238;2023-09-08T10:09:42;5.78;;;4.38;;
6997;SDS011;3539;47.982;12.238;2023-09-08T10:12:09;5.63;;;4.75;;
6997;SDS011;3539;47.982;12.238;2023-09-08T10:14:42;4.50;;;4.10;;
6997;SDS011;3539;47.982;12.238;2023-09-08T10:17:11;5.85;;;4.85;;
6997;SDS011;3539;47.982;12.238;2023-09-08T10:19:41;8.48;;;4.40;;
6997;SDS011;3539;47.982;12.238;2023-09-08T10:22:09;5.30;;;4.10;;
6997;SDS011;3539;47.982;12.238;2023-09-08T10:24:38;5.32;;;4.43;;
6997;SDS011;3539;47.982;12.238;2023-09-08T10:27:07;6.68;;;4.70;;
6997;SDS011;3539;47.982;12.238;2023-09-08T10:29:35;5.05;;;4.30;;
6997;SDS011;3539;47.982;12.238;2023-09-08T10:32:03;4.95;;;3.85;;
6997;SDS011;3539;47.982;12.238;2023-09-08T10:34:32;4.68;;;4.07;;
6997;SDS011;3539;47.982;12.238;2023-09-08T10:37:00;4.32;;;3.92;;
6997;SDS011;3539;47.982;12.238;2023-09-08T10:39:28;4.35;;;3.95;;
6997;SDS011;3539;47.982;12.238;2023-09-08T10:45:01;4.10;;;3.70;;
6997;SDS011;3539;47.982;12.238;2023-09-08T10:47:32;4.55;;;4.10;;
6997;SDS011;3539;47.982;12.238;2023-09-08T10:50:02;6.00;;;4.43;;
6997;SDS011;3539;47.982;12.238;2023-09-08T10:52:30;5.35;;;4.28;;
6997;SDS011;3539;47.982;12.238;2023-09-08T10:55:00;4.53;;;4.13;;
6997;SDS011;3539;47.982;12.238;2023-09-08T10:57:27;4.78;;;4.00;;
6997;SDS011;3539;47.982;12.238;2023-09-08T10:59:56;6.22;;;3.97;;
6997;SDS011;3539;47.982;12.238;2023-09-08T11:02:36;4.88;;;4.15;;
6997;SDS011;3539;47.982;12.238;2023-09-08T11:05:05;4.38;;;3.97;;
6997;SDS011;3539;47.982;12.238;2023-09-08T11:07:34;3.88;;;3.58;;
6997;SDS011;3539;47.982;12.238;2023-09-08T11:10:01;4.28;;;3.88;;
6997;SDS011;3539;47.982;12.238;2023-09-08T11:12:29;4.25;;;3.85;;
6997;SDS011;3539;47.982;12.238;2023-09-08T11:14:57;4.82;;;4.18;;
6997;SDS011;3539;47.982;12.238;2023-09-08T11:17:26;4.00;;;3.60;;
6997;SDS011;3539;47.982;12.238;2023-09-08T11:19:54;4.60;;;4.03;;
6997;SDS011;3539;47.982;12.238;2023-09-08T11:22:22;4.30;;;3.90;;
6997;SDS011;3539;47.982;12.238;2023-09-08T11:24:50;4.25;;;3.88;;
6997;SDS011;3539;47.982;12.238;2023-09-08T11:27:18;4.28;;;3.88;;
6997;SDS011;3539;47.982;12.238;2023-09-08T11:29:45;4.00;;;3.60;;
6997;SDS011;3539;47.982;12.238;2023-09-08T11:32:12;5.47;;;4.07;;
6997;SDS011;3539;47.982;12.238;2023-09-08T11:34:38;4.70;;;3.90;;
6997;SDS011;3539;47.982;12.238;2023-09-08T11:37:09;4.70;;;3.60;;
6997;SDS011;3539;47.982;12.238;2023-09-08T11:39:38;4.13;;;3.40;;
6997;SDS011;3539;47.982;12.238;2023-09-08T11:42:05;3.80;;;3.50;;
6997;SDS011;3539;47.982;12.238;2023-09-08T11:44:33;4.10;;;3.42;;
6997;SDS011;3539;47.982;12.238;2023-09-08T11:47:00;4.05;;;3.65;;
6997;SDS011;3539;47.982;12.238;2023-09-08T11:49:33;4.80;;;4.30;;
6997;SDS011;3539;47.982;12.238;2023-09-08T11:52:00;4.00;;;3.47;;
6997;SDS011;3539;47.982;12.238;2023-09-08T11:54:28;6.63;;;3.45;;
6997;SDS011;3539;47.982;12.238;2023-09-08T11:56:56;5.00;;;3.97;;
6997;SDS011;3539;47.982;12.238;2023-09-08T11:59:23;5.60;;;3.78;;
6997;SDS011;3539;47.982;12.238;2023-09-08T12:01:51;4.03;;;3.67;;
6997;SDS011;3539;47.982;12.238;2023-09-08T12:04:18;4.28;;;3.88;;
6997;SDS011;3539;47.982;12.238;2023-09-08T12:06:45;4.53;;;4.07;;
6997;SDS011;3539;47.982;12.238;2023-09-08T12:09:12;3.78;;;3.42;;
6997;SDS011;3539;47.982;12.238;2023-09-08T12:11:43;4.05;;;3.67;;
6997;SDS011;3539;47.982;12.238;2023-09-08T12:14:10;5.60;;;3.75;;
6997;SDS011;3539;47.982;12.238;2023-09-08T12:16:38;5.55;;;4.15;;
6997;SDS011;3539;47.982;12.238;2023-09-08T12:19:05;4.60;;;4.20;;
6997;SDS011;3539;47.982;12.238;2023-09-08T12:21:34;4.40;;;4.00;;
6997;SDS011;3539;47.982;12.238;2023-09-08T12:24:02;4.68;;;4.18;;
6997;SDS011;3539;47.982;12.238;2023-09-08T12:26:29;4.40;;;4.00;;
6997;SDS011;3539;47.982;12.238;2023-09-08T12:28:57;4.38;;;3.97;;
6997;SDS011;3539;47.982;12.238;2023-09-08T12:31:24;4.70;;;4.28;;
6997;SDS011;3539;47.982;12.238;2023-09-08T12:33:51;5.50;;;4.15;;
6997;SDS011;3539;47.982;12.238;2023-09-08T12:36:19;4.72;;;4.25;;
6997;SDS011;3539;47.982;12.238;2023-09-08T12:38:47;5.35;;;4.60;;
6997;SDS011;3539;47.982;12.238;2023-09-08T12:41:14;5.10;;;4.30;;
6997;SDS011;3539;47.982;12.238;2023-09-08T12:43:41;4.78;;;4.32;;
6997;SDS011;3539;47.982;12.238;2023-09-08T12:46:09;4.28;;;3.88;;
6997;SDS011;3539;47.982;12.238;2023-09-08T12:48:37;5.53;;;4.13;;
6997;SDS011;3539;47.982;12.238;2023-09-08T12:51:04;4.30;;;3.90;;
6997;SDS011;3539;47.982;12.238;2023-09-08T12:53:32;3.97;;;3.67;;
6997;SDS011;3539;47.982;12.238;2023-09-08T12:56:00;6.95;;;4.15;;
6997;SDS011;3539;47.982;12.238;2023-09-08T12:58:27;4.22;;;3.83;;
6997;SDS011;3539;47.982;12.238;2023-09-08T13:00:54;4.50;;;3.90;;
6997;SDS011;3539;47.982;12.238;2023-09-08T13:03:22;4.80;;;3.60;;
6997;SDS011;3539;47.982;12.238;2023-09-08T13:05:49;4.78;;;4.10;;
6997;SDS011;3539;47.982;12.238;2023-09-08T13:08:16;4.20;;;3.80;;
6997;SDS011;3539;47.982;12.238;2023-09-08T13:10:43;4.85;;;4.20;;
6997;SDS011;3539;47.982;12.238;2023-09-08T13:13:09;4.80;;;3.95;;
6997;SDS011;3539;47.982;12.238;2023-09-08T13:15:35;5.70;;;3.75;;
6997;SDS011;3539;47.982;12.238;2023-09-08T13:18:02;5.90;;;4.30;;
6997;SDS011;3539;47.982;12.238;2023-09-08T13:20:31;4.50;;;4.10;;
6997;SDS011;3539;47.982;12.238;2023-09-08T13:22:57;4.57;;;4.18;;
6997;SDS011;3539;47.982;12.238;2023-09-08T13:25:24;5.30;;;3.88;;
6997;SDS011;3539;47.982;12.238;2023-09-08T13:27:51;4.38;;;3.97;;
6997;SDS011;3539;47.982;12.238;2023-09-08T13:30:18;4.32;;;3.92;;
6997;SDS011;3539;47.982;12.238;2023-09-08T13:32:47;4.22;;;3.83;;
6997;SDS011;3539;47.982;12.238;2023-09-08T13:35:14;5.72;;;4.50;;
6997;SDS011;3539;47.982;12.238;2023-09-08T13:37:42;7.47;;;4.05;;
6997;SDS011;3539;47.982;12.238;2023-09-08T13:40:09;4.13;;;3.70;;
6997;SDS011;3539;47.982;12.238;2023-09-08T13:42:38;5.65;;;4.38;;
6997;SDS011;3539;47.982;12.238;2023-09-08T13:45:05;4.32;;;3.92;;
6997;SDS011;3539;47.982;12.238;2023-09-08T13:47:32;4.78;;;4.30;;
6997;SDS011;3539;47.982;12.238;2023-09-08T13:50:01;6.18;;;4.35;;
6997;SDS011;3539;47.982;12.238;2023-09-08T13:52:28;5.13;;;4.55;;
6997;SDS011;3539;47.982;12.238;2023-09-08T13:54:56;5.00;;;4.32;;
6997;SDS011;3539;47.982;12.238;2023-09-08T13:57:23;5.80;;;4.53;;
6997;SDS011;3539;47.982;12.238;2023-09-08T13:59:51;5.35;;;4.35;;
6997;SDS011;3539;47.982;12.238;2023-09-08T14:02:19;4.82;;;3.90;;
6997;SDS011;3539;47.982;12.238;2023-09-08T14:04:46;4.78;;;3.95;;
6997;SDS011;3539;47.982;12.238;2023-09-08T14:07:13;4.75;;;4.35;;
6997;SDS011;3539;47.982;12.238;2023-09-08T14:09:40;5.20;;;4.47;;
6997;SDS011;3539;47.982;12.238;2023-09-08T14:12:08;4.97;;;4.38;;
6997;SDS011;3539;47.982;12.238;2023-09-08T14:14:35;5.45;;;4.38;;
6997;SDS011;3539;47.982;12.238;2023-09-08T14:17:02;5.55;;;4.35;;
6997;SDS011;3539;47.982;12.238;2023-09-08T14:19:30;5.47;;;4.30;;
6997;SDS011;3539;47.982;12.238;2023-09-08T14:21:56;6.10;;;4.55;;
6997;SDS011;3539;47.982;12.238;2023-09-08T14:24:23;4.80;;;4.40;;
6997;SDS011;3539;47.982;12.238;2023-09-08T14:26:50;5.45;;;4.68;;
6997;SDS011;3539;47.982;12.238;2023-09-08T14:29:20;7.28;;;4.82;;
6997;SDS011;3539;47.982;12.238;2023-09-08T14:31:47;4.75;;;4.35;;
6997;SDS011;3539;47.982;12.238;2023-09-08T14:34:14;6.78;;;4.60;;
6997;SDS011;3539;47.982;12.238;2023-09-08T14:36:41;7.63;;;4.40;;
6997;SDS011;3539;47.982;12.238;2023-09-08T14:39:08;4.93;;;4.13;;
6997;SDS011;3539;47.982;12.238;2023-09-08T14:41:37;4.82;;;4.32;;
6997;SDS011;3539;47.982;12.238;2023-09-08T14:44:04;4.38;;;3.97;;
6997;SDS011;3539;47.982;12.238;2023-09-08T14:46:32;4.65;;;4.20;;
6997;SDS011;3539;47.982;12.238;2023-09-08T14:48:59;4.70;;;4.20;;
6997;SDS011;3539;47.982;12.238;2023-09-08T14:51:27;5.20;;;4.70;;
6997;SDS011;3539;47.982;12.238;2023-09-08T14:53:54;5.10;;;4.60;;
6997;SDS011;3539;47.982;12.238;2023-09-08T14:56:21;4.82;;;4.25;;
6997;SDS011;3539;47.982;12.238;2023-09-08T14:58:50;4.75;;;4.35;;
6997;SDS011;3539;47.982;12.238;2023-09-08T15:01:17;5.35;;;4.50;;
6997;SDS011;3539;47.982;12.238;2023-09-08T15:03:47;5.28;;;4.57;;
6997;SDS011;3539;47.982;12.238;2023-09-08T15:09:43;5.88;;;4.30;;